ソルトレイクシティ の空港の天気 - METARとTAF

ソルト・レーク・シティ国際空港 ( KSLC / SLC ) - アメリカ ユタ州ソルトレイクシティ
飛行場実況気象(Metar)
観測時間09/27 16:54 MDT (09/27 22:54 UTC)
風向・風速北 4m/s
視程10km以上
天気現象
少しの雲 雲底高度 3660m
少しの雲 雲底高度 6100m
気温31.7℃
湿度12%
気圧1014.9hPa
METARKSLC 272254Z 35007KT 10SM FEW120 FEW200 32/M01 A3012 RMK AO2 SLP149 T03171011
過去の天気等 Google飛行場航空写真 Wunderground天気予報

過去48時間のMETAR

飛行場予報(TAF)
発表時間: 9/27 17:20 MDT (9/27 23:20 UTC)
予報対象時間: 27日18時 MDT ~ 29日0時 MDT
風向・風速北北西 4m/s
視程10km以上
全天の4割程度の雲 雲底高度 6100m
27日21時 MDT から
風向・風速南南東 3m/s
視程10km以上
少しの雲 雲底高度 4270m
全天の4割程度の雲 雲底高度 5490m
28日11時 MDT から
風向・風速南 8m/s 瞬間風速 13m/s
視程10km以上
天気現象周辺でしゅう雨
少しの雲 雲底高度 3050m
全天の4割程度の雲 雲底高度 3660m
全天の8割程度の雲 雲底高度 4570m
28日19時 MDT から
風向・風速南南東 5m/s
視程10km以上
天気現象周辺でしゅう雨
全天の8割程度の雲 雲底高度 2440m
全天を覆う雲 雲底高度 3050m
KSLC 272320Z 2800/2906 33008KT P6SM SCT200
FM280300 15006KT P6SM FEW140 SCT180
FM281700 18015G25KT P6SM VCSH FEW100 SCT120 BKN150
FM290100 15010KT P6SM VCSH BKN080 OVC100